createdAt,value
2018-07-31T00:03:37.510Z,16.15
2018-07-31T00:09:32.491Z,14.93
2018-07-31T00:15:27.516Z,18.76
2018-07-31T00:21:22.498Z,15.26
2018-07-31T00:27:17.524Z,17.07
2018-07-31T00:39:07.508Z,21.13
2018-07-31T00:39:07.558Z,16.43
2018-07-31T00:45:02.519Z,14.61
2018-07-31T00:50:57.498Z,18.5
2018-07-31T00:56:52.525Z,14.75
2018-07-31T01:02:47.500Z,14.61
2018-07-31T01:08:42.513Z,15.44
2018-07-31T01:14:37.521Z,15.25
2018-07-31T01:20:32.541Z,16.59
2018-07-31T01:26:27.550Z,13.75
2018-07-31T01:32:22.575Z,14.02
2018-07-31T01:38:17.565Z,12.25
2018-07-31T01:44:12.515Z,14.18
2018-07-31T01:50:07.542Z,13.47
2018-07-31T01:56:02.514Z,12.42
2018-07-31T02:01:57.497Z,14.87
2018-07-31T02:07:52.501Z,16.07
2018-07-31T02:13:47.531Z,15.97
2018-07-31T02:19:42.530Z,15.06
2018-07-31T02:25:37.517Z,16.29
2018-07-31T02:31:32.509Z,16.52
2018-07-31T02:37:27.528Z,18.19
2018-07-31T02:43:22.533Z,15.5
2018-07-31T02:49:17.565Z,15.91
2018-07-31T02:55:12.580Z,17.63
2018-07-31T03:01:07.553Z,17.66
2018-07-31T03:07:02.484Z,17.69
2018-07-31T03:12:57.514Z,14.78
2018-07-31T03:18:52.511Z,15.54
2018-07-31T03:24:47.520Z,16.06
2018-07-31T03:30:42.522Z,17.28
2018-07-31T03:36:37.508Z,15.8
2018-07-31T03:42:32.570Z,18.36
2018-07-31T03:48:27.511Z,17.53
2018-07-31T03:54:22.516Z,20.2
2018-07-31T04:00:17.505Z,26.6
2018-07-31T04:06:12.526Z,22.27
2018-07-31T04:12:07.524Z,23.55
2018-07-31T04:18:02.499Z,23.36
2018-07-31T04:23:57.509Z,22.9
2018-07-31T04:29:52.528Z,20.27
2018-07-31T04:35:47.568Z,20.74
2018-07-31T04:41:42.559Z,17.92
2018-07-31T04:47:37.522Z,26.85
2018-07-31T04:53:32.516Z,24.64
2018-07-31T04:59:27.530Z,19.49
2018-07-31T05:05:22.536Z,18.83
2018-07-31T05:11:17.604Z,17.31
2018-07-31T05:17:12.575Z,19.44
2018-07-31T05:23:07.523Z,20.59
2018-07-31T05:29:02.517Z,16.61
2018-07-31T05:34:57.534Z,40.27
2018-07-31T05:40:52.538Z,33.61
2018-07-31T05:46:47.559Z,21.69
2018-07-31T05:52:42.525Z,20.88
2018-07-31T05:58:37.552Z,20.08
2018-07-31T06:04:32.514Z,21.31
2018-07-31T06:10:27.526Z,17.21
2018-07-31T06:34:07.536Z,21.56
2018-07-31T06:34:07.575Z,23.08
2018-07-31T06:40:02.552Z,18.49
2018-07-31T06:45:57.550Z,19.44
2018-07-31T06:51:52.563Z,20.92
2018-07-31T06:57:47.599Z,19.53
2018-07-31T07:03:42.548Z,23.87
2018-07-31T07:09:37.561Z,16.58
2018-07-31T07:15:32.611Z,26.91
2018-07-31T07:21:27.554Z,29.14
2018-07-31T07:27:22.621Z,19.67
2018-07-31T07:33:17.546Z,16.79
2018-07-31T07:39:12.532Z,23.69
2018-07-31T07:45:07.555Z,19.3
2018-07-31T07:51:02.546Z,22.09
2018-07-31T07:56:57.582Z,18.26
2018-07-31T08:02:52.573Z,15.02
2018-07-31T08:08:47.562Z,15.19
2018-07-31T08:20:37.549Z,15.59
2018-07-31T08:26:32.549Z,14.91
2018-07-31T08:32:27.556Z,15.41
2018-07-31T08:38:22.543Z,15.49
2018-07-31T08:44:17.561Z,18.46
2018-07-31T08:50:12.593Z,14.47
2018-07-31T08:56:07.585Z,14.41
2018-07-31T09:02:02.576Z,14.94
2018-07-31T09:07:57.600Z,15.3
2018-07-31T09:13:52.577Z,15.16
2018-07-31T09:19:47.565Z,16.47
2018-07-31T09:25:42.578Z,19.31
2018-07-31T09:31:37.567Z,14.79
2018-07-31T09:37:32.626Z,14.29
2018-07-31T09:43:27.618Z,15.48
2018-07-31T09:49:22.606Z,14.92
2018-07-31T09:55:17.575Z,14.82
2018-07-31T10:01:12.577Z,16.03
2018-07-31T10:07:07.584Z,13.98
2018-07-31T10:13:02.563Z,11.53
2018-07-31T10:24:52.580Z,12.39
2018-07-31T10:30:58.720Z,13.74
2018-07-31T10:36:42.625Z,14.53
2018-07-31T10:42:37.568Z,9.31
2018-07-31T10:48:32.667Z,11.9
2018-07-31T10:54:27.572Z,9.3
2018-07-31T11:00:22.626Z,7.61
2018-07-31T11:06:17.640Z,12.2
2018-07-31T11:12:12.607Z,10.07
2018-07-31T11:18:07.606Z,8.65
2018-07-31T11:24:02.644Z,7.56
2018-07-31T11:29:57.587Z,9.7
2018-07-31T11:35:52.646Z,7.95
2018-07-31T11:41:47.622Z,10.14
2018-07-31T11:47:42.640Z,7.29
2018-07-31T11:53:37.606Z,10.2
2018-07-31T11:59:43.787Z,12.57
2018-07-31T12:05:27.603Z,12.07
2018-07-31T12:11:22.644Z,11.81
2018-07-31T12:17:17.604Z,13.07
2018-07-31T12:23:12.699Z,11.86
2018-07-31T12:29:07.588Z,11.57
2018-07-31T12:35:02.620Z,13.39
2018-07-31T12:40:57.668Z,11.75
2018-07-31T12:46:52.606Z,11.75
2018-07-31T12:52:47.594Z,11.84
2018-07-31T12:58:42.618Z,11.59
2018-07-31T13:04:37.616Z,12.41
2018-07-31T13:10:32.612Z,12.25
2018-07-31T13:16:27.594Z,11.78
2018-07-31T13:22:33.848Z,9.5
2018-07-31T13:28:17.625Z,11.77
2018-07-31T13:34:12.668Z,11.6
2018-07-31T13:40:07.607Z,11.84
2018-07-31T13:46:02.617Z,10.93
2018-07-31T13:51:57.641Z,11.54
2018-07-31T13:57:52.636Z,10.73
2018-07-31T14:03:47.609Z,9.03
2018-07-31T14:09:42.623Z,9.65
2018-07-31T14:15:37.618Z,10.51
2018-07-31T14:21:33.280Z,9.81
2018-07-31T14:33:22.631Z,11.05
2018-07-31T14:33:22.644Z,11.62
2018-07-31T14:39:17.645Z,10.72
2018-07-31T14:45:12.632Z,9.84
2018-07-31T14:51:07.621Z,10.09
2018-07-31T14:57:02.671Z,10.51
2018-07-31T15:02:57.671Z,10.87
2018-07-31T15:08:52.629Z,10.6
2018-07-31T15:14:47.710Z,9
2018-07-31T15:20:42.626Z,11.06
2018-07-31T15:26:37.634Z,13.73
2018-07-31T15:38:35.986Z,10.34
2018-07-31T15:38:39.506Z,12.42
2018-07-31T15:44:30.791Z,10.34
2018-07-31T15:50:25.747Z,10.84
2018-07-31T15:56:20.860Z,9.99
2018-07-31T16:02:15.827Z,10.73
2018-07-31T16:08:10.868Z,10.74
2018-07-31T16:14:06.064Z,10.88
2018-07-31T16:20:00.268Z,10.89
2018-07-31T16:25:47.757Z,10.12
2018-07-31T16:31:50.791Z,9.93
2018-07-31T16:37:45.825Z,10.45
2018-07-31T16:43:40.751Z,10.63
2018-07-31T16:49:35.814Z,9.89
2018-07-31T16:55:31.065Z,15.15
2018-07-31T17:01:26.076Z,11.61
2018-07-31T17:07:20.888Z,12.12
2018-07-31T17:13:16.132Z,10.54
2018-07-31T17:19:11.197Z,10.79
2018-07-31T17:25:05.771Z,10.12
2018-07-31T17:31:00.867Z,15.44
2018-07-31T17:36:55.867Z,16.07
2018-07-31T17:42:50.777Z,17.4
2018-07-31T17:48:45.787Z,20.9
2018-07-31T17:54:44.840Z,21.03
2018-07-31T18:00:37.744Z,22.54
2018-07-31T18:06:36.481Z,21.65
2018-07-31T18:12:25.889Z,24.02
2018-07-31T18:18:20.861Z,16.76
2018-07-31T18:24:16.149Z,19.49
2018-07-31T18:30:02.731Z,16.88
2018-07-31T18:35:57.642Z,15.54
2018-07-31T18:41:52.682Z,14.59
2018-07-31T18:47:52.691Z,16.08
2018-07-31T18:53:46.098Z,13.14
2018-07-31T18:59:37.665Z,15.71
2018-07-31T19:05:32.681Z,14.61
2018-07-31T19:11:28.362Z,17.01
2018-07-31T19:17:22.664Z,17.07
2018-07-31T19:23:17.701Z,16.18
2018-07-31T19:29:14.675Z,16.57
2018-07-31T19:35:15.932Z,19.74
2018-07-31T19:41:02.662Z,17.27
2018-07-31T19:46:57.733Z,12.33
2018-07-31T19:52:54.739Z,15.77
2018-07-31T19:58:49.877Z,11.9
2018-07-31T20:04:42.670Z,13.25
2018-07-31T20:10:37.735Z,11.62
2018-07-31T20:16:37.837Z,10.59
2018-07-31T20:22:27.783Z,11.34
2018-07-31T20:28:22.702Z,11.03
2018-07-31T20:34:17.697Z,13.67
2018-07-31T20:40:13.313Z,16.65
2018-07-31T20:57:57.710Z,12.97
2018-07-31T20:57:58.283Z,15.19
2018-07-31T21:03:52.748Z,16.29
2018-07-31T21:15:47.831Z,14.36
2018-07-31T21:15:47.883Z,14.25
2018-07-31T21:21:37.693Z,12.62
2018-07-31T21:27:32.699Z,12.03
2018-07-31T21:39:22.772Z,15.19
2018-07-31T21:45:17.692Z,12.91
2018-07-31T21:51:12.718Z,12.05
2018-07-31T21:57:08.240Z,13.03
2018-07-31T22:08:59.635Z,13.53
2018-07-31T22:08:59.968Z,16.92
2018-07-31T22:14:52.700Z,11.37
2018-07-31T22:20:47.761Z,14.45
2018-07-31T22:26:46.290Z,15.52
2018-07-31T22:32:37.712Z,11.66
2018-07-31T22:38:32.714Z,11.18
2018-07-31T22:44:32.961Z,16.24
2018-07-31T22:50:22.737Z,11.29
2018-07-31T22:56:20.264Z,12.66
2018-07-31T23:02:19.699Z,18.55
2018-07-31T23:08:18.818Z,15.12
2018-07-31T23:14:05.543Z,25.45
2018-07-31T23:19:59.930Z,14.54
2018-07-31T23:25:57.897Z,24.9
2018-07-31T23:31:47.725Z,14.81
2018-07-31T23:37:47.879Z,17.06
2018-07-31T23:43:40.629Z,13.69
2018-07-31T23:49:37.896Z,13.08
2018-07-31T23:55:27.735Z,15.77
